M I D A S
Marine Information and Data Acquisition System
Tripno 1620 of the Zeeleeuw from 2008-12-16 07:49:51 to 2008-12-16 15:34:48
Back to CruiseResearch ActivitiesStationsMapUnderway DataData graphs

EquipmentUnitsComment
TimeDGPSUTC
LatitudeDGPSDM.mWGS84
LongitudeDGPSDM.mWGS84
HeadingGyrodeg 
SOGDGPSknotsSpeed over ground
COGDGPSdegCourse over ground
DepthEcho soundermeters200 kHz
Missing or incorrect values are displayed as -999
Navigation data collected by the RV Zeeleeuw from 2008-12-16 07:55:19 to 2008-12-16 15:37:03
Time Latitude Longitude Heading SOG COG Depth
2008-12-16 07:56:24 51°13.679 2°55.889 105.1 4 289 -999
2008-12-16 07:57:24 51°13.687 2°55.79 79.8 3.3 266 9
2008-12-16 07:58:24 51°13.684 2°55.734 55.2 0.7 279 11.8
2008-12-16 07:59:24 51°13.719 2°55.725 346 4.5 341 11.4
2008-12-16 08:00:24 51°13.817 2°55.644 333.8 7.7 334 9.3
2008-12-16 08:01:24 51°13.941 2°55.552 336.5 8.4 335 9.2
2008-12-16 08:02:24 51°14.068 2°55.459 336.5 8.4 334 9.1
2008-12-16 08:03:24 51°14.193 2°55.356 331.7 8.5 327 9.2
2008-12-16 08:04:24 51°14.298 2°55.199 313.8 9.1 313 9.3
2008-12-16 08:05:24 51°14.4 2°55.011 313.4 9.5 311 9.8
2008-12-16 08:06:24 51°14.518 2°54.828 324.6 10.1 321 8.8
2008-12-16 08:07:24 51°14.657 2°54.674 335.7 10.3 327 8.4
2008-12-16 08:08:24 51°14.805 2°54.527 336.5 10.8 329 8.3
2008-12-16 08:09:24 51°14.963 2°54.38 336.7 11 330 6.9
2008-12-16 08:10:24 51°15.13 2°54.232 337.9 12.1 331 9.9
2008-12-16 08:11:24 51°15.305 2°54.072 337 12.1 331 9
2008-12-16 08:12:24 51°15.481 2°53.918 338 12.2 330 10.2
2008-12-16 08:13:24 51°15.659 2°53.76 338.1 12.2 330 9.5
2008-12-16 08:14:24 51°15.835 2°53.601 339.5 12.3 329 9.8
2008-12-16 08:15:24 51°16.012 2°53.44 340.1 12.2 332 10
2008-12-16 08:16:24 51°16.192 2°53.286 339.9 12.3 332 10.2
2008-12-16 08:17:24 51°16.373 2°53.132 340.7 12.3 332 10.3
2008-12-16 08:18:24 51°16.556 2°52.982 340.7 12.3 333 10.4
2008-12-16 08:19:24 51°16.737 2°52.835 340.5 12.1 334 9.2
2008-12-16 08:20:24 51°16.912 2°52.685 337.3 12 331 8
2008-12-16 08:21:24 51°17.088 2°52.53 337.7 12 331 8.1
2008-12-16 08:22:24 51°17.265 2°52.376 338.2 12.2 331 8.7
2008-12-16 08:23:24 51°17.436 2°52.202 332.7 12.3 324 8.9
2008-12-16 08:24:24 51°17.599 2°52.007 328.1 12.3 321 8.9
2008-12-16 08:25:24 51°17.758 2°51.802 327.5 12.3 320 8.6
2008-12-16 08:26:24 51°17.918 2°51.594 327.6 12.4 319 8.9
2008-12-16 08:27:24 51°18.073 2°51.374 325.5 12.6 318 9.8
2008-12-16 08:28:24 51°18.229 2°51.151 325.2 12.6 318 11.1
2008-12-16 08:29:24 51°18.385 2°50.931 325.9 12.5 318 11.9
2008-12-16 08:30:24 51°18.542 2°50.707 327.7 12.7 319 12.6
2008-12-16 08:31:24 51°18.698 2°50.479 326.3 12.7 318 12.8
2008-12-16 08:32:24 51°18.855 2°50.254 327.2 12.7 319 12.2
2008-12-16 08:33:24 51°19.016 2°50.034 327.6 12.7 320 10.5
2008-12-16 08:34:24 51°19.177 2°49.812 326.9 12.9 319 9.4
2008-12-16 08:35:24 51°19.34 2°49.586 326.8 13 319 11.3
2008-12-16 08:36:24 51°19.506 2°49.359 326.9 13.1 320 13.6
2008-12-16 08:37:24 51°19.671 2°49.131 327 13.1 320 15.9
2008-12-16 08:38:24 51°19.835 2°48.907 327.6 12.9 318 18.2
2008-12-16 08:39:24 51°19.995 2°48.684 329.3 12.7 321 20.6
2008-12-16 08:40:24 51°20.155 2°48.468 327.7 12.6 319 20.9
2008-12-16 08:41:24 51°20.317 2°48.25 326.9 12.9 317 20.8
2008-12-16 08:42:24 51°20.475 2°48.015 325.2 13 316 19.7
2008-12-16 08:43:24 51°20.64 2°47.8 335.2 12.6 331 18
2008-12-16 08:44:24 51°20.833 2°47.676 350 12.5 341 17.5
2008-12-16 08:45:24 51°21.032 2°47.574 352.2 12.6 342 19
2008-12-16 08:46:24 51°21.233 2°47.468 349.5 12.8 341 20.8
2008-12-16 08:47:24 51°21.434 2°47.357 350 12.7 342 22.4
2008-12-16 08:48:24 51°21.633 2°47.243 346 12.6 339 23.4
2008-12-16 08:49:24 51°21.827 2°47.122 346.9 12.4 339 22.7
2008-12-16 08:50:24 51°22.02 2°47.007 349.4 12.4 341 21.9
2008-12-16 08:51:24 51°22.213 2°46.895 347.9 12.3 339 19.2
2008-12-16 08:52:24 51°22.405 2°46.792 351.4 12.1 343 15.8
2008-12-16 08:53:24 51°22.593 2°46.664 339.5 12.5 327 13.5
2008-12-16 08:54:24 51°22.736 2°46.415 312.8 13 305 19.3
2008-12-16 08:55:24 51°22.859 2°46.132 311.2 13 305 20.8
2008-12-16 08:56:24 51°22.987 2°45.851 311.6 13 307 24.6
2008-12-16 08:57:24 51°23.113 2°45.569 311.6 13 304 24.6
2008-12-16 08:58:24 51°23.241 2°45.29 312.2 13 307 26
2008-12-16 08:59:24 51°23.368 2°45.012 311.5 12.9 305 25.2
2008-12-16 09:00:24 51°23.489 2°44.728 310.6 12.9 304 24.6
2008-12-16 09:01:24 51°23.613 2°44.448 313.3 13 305 25.1
2008-12-16 09:02:24 51°23.734 2°44.163 310.2 13 303 25.6
2008-12-16 09:03:24 51°23.856 2°43.881 313.8 12.6 307 24.6
2008-12-16 09:04:24 51°23.98 2°43.603 312.8 12.9 305 23.3
2008-12-16 09:05:24 51°24.107 2°43.327 315.3 12.8 309 25.1
2008-12-16 09:06:24 51°24.246 2°43.07 320.2 12.8 311 15.9
2008-12-16 09:07:24 51°24.39 2°42.822 320.8 12.7 313 21.4
2008-12-16 09:08:24 51°24.526 2°42.566 316.5 12.5 310 19.3
2008-12-16 09:09:24 51°24.659 2°42.309 316.6 12.5 309 23.1
2008-12-16 09:10:24 51°24.811 2°42.089 329.8 12.2 321 20.5
2008-12-16 09:11:24 51°24.952 2°41.848 316.4 12.5 309 23
2008-12-16 09:12:24 51°25.077 2°41.579 313.7 12.6 307 23.3
2008-12-16 09:13:24 51°25.196 2°41.304 310.7 12.6 303 22.8
2008-12-16 09:14:24 51°25.311 2°41.022 310.6 12.6 303 23.9
2008-12-16 09:15:24 51°25.419 2°40.731 307.4 12.9 301 26.1
2008-12-16 09:16:24 51°25.536 2°40.444 313.2 12.8 306 26
2008-12-16 09:17:24 51°25.662 2°40.17 313.4 12.8 306 28.6
2008-12-16 09:18:24 51°25.782 2°39.888 311.3 12.7 304 28.7
2008-12-16 09:19:24 51°25.909 2°39.617 314.1 12.8 305 29.7
2008-12-16 09:20:24 51°26.037 2°39.346 314.7 12.8 307 34.7
2008-12-16 09:21:24 51°26.163 2°39.073 314.2 12.8 306 31.6
2008-12-16 09:22:24 51°26.288 2°38.798 313.7 12.7 307 32.4
2008-12-16 09:23:24 51°26.405 2°38.515 311.9 12.7 305 31.3
2008-12-16 09:24:24 51°26.539 2°38.254 318.9 12.7 310 30.9
2008-12-16 09:25:24 51°26.676 2°37.995 318.8 12.7 312 31.1
2008-12-16 09:26:24 51°26.819 2°37.749 322.2 12.6 315 32.3
2008-12-16 09:27:24 51°26.966 2°37.511 323.8 12.4 318 31.1
2008-12-16 09:28:24 51°27.117 2°37.288 325.6 12.3 319 30.9
2008-12-16 09:29:24 51°27.271 2°37.071 327 12.3 318 30.5
2008-12-16 09:30:24 51°27.428 2°36.859 327.7 12.2 322 30.5
2008-12-16 09:31:24 51°27.59 2°36.665 331.2 12.2 324 31.7
2008-12-16 09:32:24 51°27.749 2°36.461 328.1 12.2 320 33.7
2008-12-16 09:33:24 51°27.906 2°36.255 329.8 12.1 325 32.8
2008-12-16 09:34:24 51°28.078 2°36.091 343.8 11.8 340 26.4
2008-12-16 09:35:24 51°28.266 2°36.005 355.3 11.8 346 26
2008-12-16 09:36:24 51°28.455 2°35.925 353.2 11.8 346 25.2
2008-12-16 09:37:24 51°28.645 2°35.9 7.1 11.4 1 23.3
2008-12-16 09:38:24 51°28.833 2°35.915 14.2 11.3 6 27.6
2008-12-16 09:39:24 51°29.016 2°35.965 15.4 11.3 10 31.7
2008-12-16 09:40:24 51°29.199 2°36.026 18.1 11.2 11 30.6
2008-12-16 09:41:24 51°29.381 2°36.093 19 11.2 12 31.1
2008-12-16 09:42:24 51°29.561 2°36.169 19.7 11.1 12 30
2008-12-16 09:43:24 51°29.741 2°36.242 19.8 11.1 15 28.1
2008-12-16 09:44:24 51°29.92 2°36.321 20.5 11.2 17 29.6
2008-12-16 09:45:24 51°30.101 2°36.388 16 11.1 11 28.8
2008-12-16 09:46:24 51°30.282 2°36.463 19.8 11.1 17 29.5
2008-12-16 09:47:24 51°30.46 2°36.547 21.5 11.2 19 29
2008-12-16 09:48:24 51°30.638 2°36.636 20.9 11.2 17 29.4
2008-12-16 09:49:24 51°30.817 2°36.722 19.8 11.1 16 29.6
2008-12-16 09:50:24 51°30.998 2°36.793 19.1 11.2 14 29.9
2008-12-16 09:51:24 51°31.178 2°36.874 18.8 11.2 15 29.9
2008-12-16 09:52:24 51°31.357 2°36.956 20 11.2 14 29.4
2008-12-16 09:53:24 51°31.535 2°37.038 22 11.1 18 28.2
2008-12-16 09:54:24 51°31.713 2°37.123 19.7 11.2 17 28.4
2008-12-16 09:55:24 51°31.889 2°37.218 23.1 11.1 19 28.7
2008-12-16 09:56:24 51°32.067 2°37.303 19.4 11.1 15 29.6
2008-12-16 09:57:24 51°32.245 2°37.381 20.5 11.1 16 30.4
2008-12-16 09:58:24 51°32.422 2°37.463 20.3 11 16 30.3
2008-12-16 09:59:24 51°32.599 2°37.548 20.6 11 17 30.1
2008-12-16 10:00:24 51°32.776 2°37.632 20.6 11.1 17 30.6
2008-12-16 10:01:24 51°32.952 2°37.717 21.1 11 17 31
2008-12-16 10:02:24 51°33.127 2°37.807 22 11.1 19 32
2008-12-16 10:03:24 51°33.302 2°37.895 21.1 11 16 32.4
2008-12-16 10:04:24 51°33.477 2°37.986 23.2 11.1 20 32.5
2008-12-16 10:05:24 51°33.652 2°38.079 21.3 11.1 16 31.9
2008-12-16 10:06:24 51°33.829 2°38.156 19.6 11 17 33.3
2008-12-16 10:07:24 51°34.004 2°38.241 22.8 11 20 33.8
2008-12-16 10:08:24 51°34.176 2°38.342 24.1 11.1 20 34.1
2008-12-16 10:09:24 51°34.346 2°38.447 26.8 11 22 34.2
2008-12-16 10:10:24 51°34.515 2°38.559 25.8 10.9 20 34.1
2008-12-16 10:11:24 51°34.687 2°38.661 23 11 19 34.4
2008-12-16 10:12:24 51°34.86 2°38.754 23.4 10.9 19 34
2008-12-16 10:13:24 51°35.033 2°38.851 24.5 11 21 34.1
2008-12-16 10:14:24 51°35.203 2°38.963 26.2 11 22 33.2
2008-12-16 10:15:24 51°35.374 2°39.072 25.3 11 21 33.7
2008-12-16 10:16:24 51°35.545 2°39.178 25.3 11.1 22 33.3
2008-12-16 10:17:24 51°35.717 2°39.282 24.9 11 20 32.8
2008-12-16 10:18:24 51°35.891 2°39.374 21.6 11 18 32.9
2008-12-16 10:19:24 51°36.062 2°39.477 25.7 11 22 31.5
2008-12-16 10:20:24 51°36.234 2°39.585 25.2 11.1 20 31.3
2008-12-16 10:21:24 51°36.406 2°39.688 23.3 11.1 17 30.2
2008-12-16 10:22:24 51°36.58 2°39.777 22.8 11.1 17 30.2
2008-12-16 10:23:24 51°36.753 2°39.875 24.9 11 22 29.8
2008-12-16 10:24:24 51°36.923 2°39.983 26 11 22 29
2008-12-16 10:25:24 51°37.094 2°40.086 23.9 11 21 28.9
2008-12-16 10:26:24 51°37.265 2°40.189 25.2 11.1 20 27.5
2008-12-16 10:27:24 51°37.437 2°40.29 24.3 10.9 20 26.5
2008-12-16 10:28:24 51°37.608 2°40.387 24.6 11 19 25.8
2008-12-16 10:29:24 51°37.779 2°40.486 24.8 10.9 19 25.5
2008-12-16 10:30:24 51°37.95 2°40.581 24.1 10.9 19 24.7
2008-12-16 10:31:24 51°38.122 2°40.67 21.8 10.7 18 24.2
2008-12-16 10:32:24 51°38.293 2°40.757 23 10.7 17 24.6
2008-12-16 10:33:24 51°38.464 2°40.843 22.9 10.7 19 24
2008-12-16 10:34:22 51°38.624 2°40.941 25 10.8 21 27.1
2008-12-16 10:35:21 51°38.789 2°41.039 25.7 10.7 20 26.8
2008-12-16 10:36:21 51°38.957 2°41.135 24.5 10.8 21 23.4
2008-12-16 10:37:21 51°39.126 2°41.225 25.1 10.6 19 25.3
2008-12-16 10:38:21 51°39.292 2°41.312 23.2 10.4 16 16.5
2008-12-16 10:39:21 51°39.459 2°41.398 22.9 10.7 17 23.9
2008-12-16 10:40:21 51°39.626 2°41.487 25.1 10.7 21 27.1
2008-12-16 10:41:21 51°39.791 2°41.586 25.1 10.7 18 30.3
2008-12-16 10:42:21 51°39.958 2°41.687 25 10.8 22 32
2008-12-16 10:43:21 51°40.126 2°41.788 23.4 10.7 19 29.1
2008-12-16 10:44:21 51°40.294 2°41.885 24.1 10.8 19 27.3
2008-12-16 10:45:21 51°40.461 2°41.984 26.3 10.7 23 33.7
2008-12-16 10:46:21 51°40.624 2°42.094 27.8 10.7 24 33
2008-12-16 10:47:21 51°40.79 2°42.203 25.7 10.7 21 32.8
2008-12-16 10:48:21 51°40.956 2°42.31 25 10.7 22 30.4
2008-12-16 10:49:21 51°41.121 2°42.411 24.2 10.7 20 32.5
2008-12-16 10:50:21 51°41.288 2°42.509 24.9 10.6 19 34.3
2008-12-16 10:51:21 51°41.451 2°42.616 26.5 10.6 22 32.2
2008-12-16 10:52:21 51°41.615 2°42.719 25.3 10.6 21 33.4
2008-12-16 10:53:21 51°41.781 2°42.824 25.7 10.7 23 33.1
2008-12-16 10:54:21 51°41.945 2°42.929 23 10.7 21 35.4
2008-12-16 10:55:21 51°42.111 2°43.034 25.4 10.6 22 35.9
2008-12-16 10:56:21 51°42.275 2°43.139 24.2 10.5 20 33.9
2008-12-16 10:57:21 51°42.438 2°43.244 25.7 10.6 23 34
2008-12-16 10:58:21 51°42.602 2°43.352 26 10.7 22 35.4
2008-12-16 10:59:21 51°42.769 2°43.45 22 10.7 19 32.3
2008-12-16 11:00:21 51°42.93 2°43.563 32.9 10.5 32 36.4
2008-12-16 11:01:21 51°43.072 2°43.733 40 10.7 40 36.5
2008-12-16 11:02:21 51°43.125 2°43.995 88.1 11.2 100 36
2008-12-16 11:03:21 51°43.084 2°44.298 94.4 11.6 99 37.5
2008-12-16 11:04:21 51°43.052 2°44.604 93.8 11.5 102 36.8
2008-12-16 11:05:21 51°43.001 2°44.908 100.5 11.9 106 37.4
2008-12-16 11:06:21 51°42.94 2°45.213 104.2 12.1 112 36.1
2008-12-16 11:07:21 51°42.81 2°45.471 130.5 12.8 140 38.7
2008-12-16 11:08:21 51°42.635 2°45.668 150.1 13.1 161 36.7
2008-12-16 11:09:21 51°42.411 2°45.662 180.3 13.9 184 37.4
2008-12-16 11:10:21 51°42.181 2°45.619 186.8 14 191 38
2008-12-16 11:11:21 51°41.954 2°45.527 191.8 14.2 196 38.5
2008-12-16 11:12:21 51°41.728 2°45.426 198.1 14.1 200 37.2
2008-12-16 11:13:21 51°41.511 2°45.276 203.1 14.2 202 38.8
2008-12-16 11:14:21 51°41.29 2°45.144 197.6 14.3 198 39.8
2008-12-16 11:15:21 51°41.066 2°45.016 198.5 14.4 200 38.3
2008-12-16 11:16:21 51°40.842 2°44.892 194.8 14.1 197 35
2008-12-16 11:17:21 51°40.618 2°44.77 197.4 14.3 199 34.5
2008-12-16 11:18:21 51°40.399 2°44.627 203.5 14.3 203 35.8
2008-12-16 11:19:21 51°40.18 2°44.477 202.6 14.4 204 37.2
2008-12-16 11:20:21 51°39.962 2°44.334 201.3 14.4 203 34.1
2008-12-16 11:21:21 51°39.744 2°44.186 203.7 14.2 204 37.6
2008-12-16 11:22:21 51°39.528 2°44.025 204 14.4 205 36.3
2008-12-16 11:23:21 51°39.31 2°43.865 203.5 14.4 203 35.4
2008-12-16 11:24:21 51°39.09 2°43.713 202.1 14.4 205 36.9
2008-12-16 11:25:21 51°38.872 2°43.561 202.7 14.3 203 35.8
2008-12-16 11:26:21 51°38.652 2°43.407 201.4 14.3 203 35.8
2008-12-16 11:27:21 51°38.431 2°43.263 201.8 14.4 202 35.4
2008-12-16 11:28:21 51°38.211 2°43.117 202.1 14.4 202 36.2
2008-12-16 11:29:21 51°37.995 2°42.956 204.2 14.3 204 36.4
2008-12-16 11:30:21 51°37.777 2°42.802 204.2 14.2 204 36.3
2008-12-16 11:31:21 51°37.558 2°42.647 199.9 14.3 200 36
2008-12-16 11:32:21 51°37.336 2°42.513 196.7 14.2 198 36.1
2008-12-16 11:33:21 51°37.112 2°42.393 197.7 14.2 199 35.3
2008-12-16 11:34:21 51°36.89 2°42.262 198.2 14.3 201 35.6
2008-12-16 11:35:21 51°36.667 2°42.133 197.7 14.2 199 36.9
2008-12-16 11:36:21 51°36.442 2°42.017 195.3 13.9 198 36
2008-12-16 11:37:21 51°36.219 2°41.894 199.1 14.2 201 36.7
2008-12-16 11:38:21 51°35.998 2°41.764 199.6 14.1 200 37.2
2008-12-16 11:39:21 51°35.776 2°41.643 197.5 14.2 199 37
2008-12-16 11:40:21 51°35.556 2°41.509 198.4 14.1 201 38.3
2008-12-16 11:41:21 51°35.336 2°41.378 197.4 14.1 199 38.4
2008-12-16 11:42:21 51°35.116 2°41.246 197.8 14.2 201 37.4
2008-12-16 11:43:21 51°34.893 2°41.115 197.3 14.3 201 36.6
2008-12-16 11:44:21 51°34.672 2°40.98 198.7 14.2 201 38
2008-12-16 11:45:21 51°34.45 2°40.848 197.2 14 199 37.9
2008-12-16 11:46:21 51°34.228 2°40.718 197.7 14.2 198 38.4
2008-12-16 11:47:21 51°34.003 2°40.596 194.1 14.2 198 37.5
2008-12-16 11:48:21 51°33.778 2°40.475 196 14.3 200 39
2008-12-16 11:49:21 51°33.554 2°40.344 196.2 14.2 202 39.7
2008-12-16 11:50:21 51°33.333 2°40.201 199.1 14.2 202 39.9
2008-12-16 11:51:21 51°33.111 2°40.062 198.4 14.5 199 38.4
2008-12-16 11:52:21 51°32.887 2°39.93 196.1 14.2 199 38.5
2008-12-16 11:53:21 51°32.663 2°39.8 196.9 14.3 200 37.8
2008-12-16 11:54:21 51°32.436 2°39.762 167.2 13.7 169 37.7
2008-12-16 11:55:21 51°32.251 2°39.925 123.3 12.2 129 38.4
2008-12-16 11:56:21 51°32.213 2°40.22 79.8 11.4 84 37.8
2008-12-16 11:57:21 51°32.248 2°40.517 73 11.2 77 37.8
2008-12-16 11:58:21 51°32.284 2°40.816 75.3 11.6 81 38.2
2008-12-16 11:59:21 51°32.308 2°41.123 78.7 11.7 85 37.2
2008-12-16 12:00:21 51°32.324 2°41.433 80.2 11.7 86 35.5
2008-12-16 12:01:21 51°32.368 2°41.716 54.7 10.1 53 37.3
2008-12-16 12:02:21 51°32.519 2°41.841 22.4 11 21 36.9
2008-12-16 12:03:21 51°32.692 2°41.946 22.2 11.2 20 35.1
2008-12-16 12:04:21 51°32.864 2°42.055 23.5 11.1 21 33.9
2008-12-16 12:05:21 51°33.034 2°42.171 23.7 11.1 22 30.4
2008-12-16 12:05:46 51°14.565 2°58.317 126.6 -999 -999 -999
2008-12-16 12:06:36 51°33.245 2°42.323 25.4 11.2 23 34.4
2008-12-16 12:07:36 51°33.415 2°42.436 25.5 11.1 24 32.5
2008-12-16 12:08:36 51°33.584 2°42.552 23.1 11 22 36.9
2008-12-16 12:09:36 51°33.757 2°42.655 22.9 11.1 20 32.9
2008-12-16 12:10:36 51°33.926 2°42.77 25.3 11.1 23 36.7
2008-12-16 12:11:36 51°34.093 2°42.902 28.1 11.3 25 34.3
2008-12-16 12:12:36 51°34.264 2°43.017 24.9 11.2 23 38.1
2008-12-16 12:13:36 51°34.435 2°43.135 25.7 11.2 24 40.3
2008-12-16 12:14:36 51°34.606 2°43.259 25.2 11.3 22 40.9
2008-12-16 12:15:36 51°34.779 2°43.38 27.6 11.3 26 40
2008-12-16 12:16:35 51°34.946 2°43.509 27.4 11.4 24 39.2
2008-12-16 12:17:36 51°35.121 2°43.642 28 11.5 26 37.8
2008-12-16 12:18:36 51°35.292 2°43.77 27.7 11.4 25 39.5
2008-12-16 12:19:36 51°35.465 2°43.895 27.1 11.3 24 37.7
2008-12-16 12:20:36 51°35.638 2°44.017 25 11.3 23 37.2
2008-12-16 12:21:36 51°35.813 2°44.126 24.2 11.2 21 38.2
2008-12-16 12:22:36 51°35.988 2°44.238 24.8 11.3 22 39.5
2008-12-16 12:23:35 51°36.157 2°44.358 26.9 11.3 26 36.5
2008-12-16 12:24:36 51°36.334 2°44.475 25.9 11.3 23 38.5
2008-12-16 12:25:36 51°36.504 2°44.606 28.2 11.3 26 38
2008-12-16 12:26:36 51°36.678 2°44.727 27.3 11.4 24 36.7
2008-12-16 12:27:36 51°36.849 2°44.855 27.1 11.3 25 36.2
2008-12-16 12:28:36 51°37.021 2°44.979 25.7 11.4 23 37.1
2008-12-16 12:29:36 51°37.194 2°45.105 27 11.4 25 35
2008-12-16 12:30:36 51°37.366 2°45.234 27.1 11.4 25 36.1
2008-12-16 12:31:36 51°37.541 2°45.349 23.9 11.3 22 35.9
2008-12-16 12:32:36 51°37.715 2°45.47 27.5 11.4 25 35.9
2008-12-16 12:33:36 51°37.889 2°45.592 26.4 11.4 23 34.6
2008-12-16 12:34:36 51°38.064 2°45.713 25.3 11.4 23 35.1
2008-12-16 12:35:36 51°38.238 2°45.837 27.1 11.5 26 33.9
2008-12-16 12:36:36 51°38.411 2°45.974 26.6 11.5 25 33.9
2008-12-16 12:37:35 51°38.583 2°46.098 25.7 11.5 22 33.6
2008-12-16 12:38:36 51°38.764 2°46.217 23.8 11.6 22 33.3
2008-12-16 12:39:36 51°38.939 2°46.345 26.6 11.6 24 34.1
2008-12-16 12:40:36 51°39.113 2°46.474 26 11.6 24 31.8
2008-12-16 12:41:36 51°39.289 2°46.595 25 11.5 23 32.9
2008-12-16 12:42:35 51°39.464 2°46.712 23 11.5 21 31.1
2008-12-16 12:43:36 51°39.643 2°46.835 26.4 11.5 24 30.9
2008-12-16 12:44:36 51°39.819 2°46.962 26.2 11.6 24 30.5
2008-12-16 12:45:36 51°39.996 2°47.081 24.3 11.6 23 31
2008-12-16 12:46:36 51°40.172 2°47.208 26.4 11.7 24 31.5
2008-12-16 12:47:36 51°40.35 2°47.329 23.2 11.6 20 31.6
2008-12-16 12:48:36 51°40.531 2°47.438 23.5 11.6 22 29.4
2008-12-16 12:49:35 51°40.705 2°47.564 26.9 11.8 25 30
2008-12-16 12:50:37 51°40.889 2°47.7 26.5 11.7 22 26.3
2008-12-16 12:51:36 51°41.062 2°47.828 26 11.6 24 25.4
2008-12-16 12:52:36 51°41.241 2°47.946 22.6 11.7 20 28.9
2008-12-16 12:53:36 51°41.42 2°48.066 26.1 11.7 26 30.1
2008-12-16 12:54:36 51°41.597 2°48.199 25.4 11.6 23 29.6
2008-12-16 12:55:36 51°41.776 2°48.326 25.7 11.8 24 26
2008-12-16 12:56:36 51°41.956 2°48.448 23 11.7 25 31.5
2008-12-16 12:57:36 51°41.986 2°48.721 106.5 12.1 112 28.7
2008-12-16 12:58:36 51°41.848 2°48.971 134.6 12.9 138 26.9
2008-12-16 12:59:36 51°41.691 2°49.207 134.8 12.9 137 21.2
2008-12-16 13:00:36 51°41.53 2°49.439 135.8 13 137 29.8
2008-12-16 13:01:36 51°41.342 2°49.603 163.6 13 165 32.6
2008-12-16 13:02:36 51°41.125 2°49.61 186.1 13.2 184 33.5
2008-12-16 13:03:36 51°40.916 2°49.514 201.4 13.1 201 33.1
2008-12-16 13:04:36 51°40.709 2°49.401 200.8 13.2 200 33.1
2008-12-16 13:05:36 51°40.497 2°49.302 197.8 13.3 196 32.4
2008-12-16 13:06:36 51°40.284 2°49.216 193.3 13.2 193 33.2
2008-12-16 13:07:36 51°40.07 2°49.145 193.2 13.1 193 32.1
2008-12-16 13:08:36 51°39.862 2°49.041 202.5 13.1 199 33.2
2008-12-16 13:09:36 51°39.658 2°48.925 201.8 13.1 199 32.9
2008-12-16 13:10:36 51°39.45 2°48.821 197.9 13.1 196 33.4
2008-12-16 13:11:36 51°39.242 2°48.723 197.7 13 198 30.5
2008-12-16 13:12:36 51°39.036 2°48.622 199.1 12.9 197 29.9
2008-12-16 13:13:36 51°38.831 2°48.517 200.6 12.8 199 29.7
2008-12-16 13:14:36 51°38.628 2°48.405 201.4 13 198 29.9
2008-12-16 13:15:36 51°38.426 2°48.297 200.5 12.8 198 23.2
2008-12-16 13:16:36 51°38.219 2°48.207 197.9 12.8 194 24.3
2008-12-16 13:17:36 51°38.015 2°48.114 198.4 12.7 196 29.3
2008-12-16 13:18:35 51°37.816 2°48.02 198.9 12.7 197 29.9
2008-12-16 13:19:37 51°37.607 2°47.919 199.2 12.6 197 28.8
2008-12-16 13:20:36 51°37.409 2°47.825 200.4 12.5 199 30.1
2008-12-16 13:21:36 51°37.211 2°47.715 201.5 12.6 198 32
2008-12-16 13:22:37 51°37.009 2°47.606 200.1 12.5 197 32.5
2008-12-16 13:23:36 51°36.813 2°47.505 199 12.7 197 34.2
2008-12-16 13:24:36 51°36.613 2°47.414 197.3 12.5 195 35.4
2008-12-16 13:25:36 51°36.416 2°47.313 201.3 12.4 200 36.1
2008-12-16 13:26:36 51°36.218 2°47.214 197.7 12.4 196 36.6
2008-12-16 13:27:36 51°36.023 2°47.11 200.5 12.3 198 36.4
2008-12-16 13:28:36 51°35.826 2°47.014 199.6 12.4 200 36.7
2008-12-16 13:29:37 51°35.628 2°46.91 199.3 12.2 197 37.1
2008-12-16 13:30:36 51°35.437 2°46.808 199.7 12.2 198 36.4
2008-12-16 13:31:36 51°35.24 2°46.72 196.9 12.3 195 35.1
2008-12-16 13:32:36 51°35.047 2°46.614 202.9 12.3 201 35.6
2008-12-16 13:33:36 51°34.854 2°46.507 200.4 12.2 198 35.5
2008-12-16 13:34:36 51°34.663 2°46.396 200.3 12.2 199 34.5
2008-12-16 13:35:36 51°34.472 2°46.283 201.4 12.3 199 34.5
2008-12-16 13:36:37 51°34.279 2°46.167 202.9 12.1 201 34.5
2008-12-16 13:37:36 51°34.092 2°46.055 202.5 12.2 201 34
2008-12-16 13:38:36 51°33.903 2°45.943 201.6 12.1 199 33.7
2008-12-16 13:39:36 51°33.712 2°45.845 200.1 12.1 199 32.7
2008-12-16 13:40:36 51°33.522 2°45.747 200.6 11.9 199 34.2
2008-12-16 13:41:36 51°33.334 2°45.638 200.6 12 197 34.8
2008-12-16 13:42:37 51°33.142 2°45.538 199.6 12 197 34
2008-12-16 13:43:35 51°32.96 2°45.443 200.6 12 200 34.1
2008-12-16 13:44:37 51°32.77 2°45.325 203.4 11.9 201 33.8
2008-12-16 13:45:37 51°32.584 2°45.219 202.5 11.6 201 36.1
2008-12-16 13:46:37 51°32.398 2°45.123 199.7 11.5 197 38.5
2008-12-16 13:47:37 51°32.211 2°45.03 200.2 11.8 198 39.2
2008-12-16 13:48:35 51°32.032 2°44.937 200.1 11.8 198 38.6
2008-12-16 13:49:37 51°31.844 2°44.823 203.7 11.6 202 37.5
2008-12-16 13:50:35 51°31.667 2°44.726 199.9 11.6 199 36.1
2008-12-16 13:51:37 51°31.478 2°44.629 200.8 11.6 198 35.6
2008-12-16 13:52:36 51°31.3 2°44.522 202.9 11.5 199 35.7
2008-12-16 13:53:36 51°31.119 2°44.415 202.3 11.7 200 34.6
2008-12-16 13:54:36 51°30.936 2°44.315 202.3 11.7 199 35.7
2008-12-16 13:55:36 51°30.754 2°44.215 201.7 11.5 198 35.2
2008-12-16 13:56:36 51°30.57 2°44.119 201.1 11.6 196 34.7
2008-12-16 13:57:36 51°30.385 2°44.036 198.5 11.7 195 33.7
2008-12-16 13:58:36 51°30.201 2°43.952 199.5 11.4 196 37.1
2008-12-16 13:59:37 51°30.008 2°43.91 184.6 11.8 178 33.6
2008-12-16 14:00:36 51°29.815 2°43.95 176.2 12 170 33.4
2008-12-16 14:01:37 51°29.617 2°44.024 171.9 12 166 33.9
2008-12-16 14:02:36 51°29.428 2°44.113 169.9 12.1 163 32.9
2008-12-16 14:03:36 51°29.237 2°44.218 166.8 12.2 159 33.4
2008-12-16 14:04:36 51°29.046 2°44.325 166.7 12.3 160 28.5
2008-12-16 14:05:37 51°28.851 2°44.431 168.2 12.1 161 31.6
2008-12-16 14:06:36 51°28.666 2°44.55 164.5 12.4 156 29.4
2008-12-16 14:07:36 51°28.477 2°44.677 164 12.2 157 31.8
2008-12-16 14:08:36 51°28.289 2°44.811 162.3 12.4 156 31.4
2008-12-16 14:09:36 51°28.103 2°44.942 164.6 11.9 156 30.6
2008-12-16 14:10:36 51°27.916 2°45.072 164.3 12.4 156 29.5
2008-12-16 14:11:36 51°27.726 2°45.201 164.6 12.4 156 28.9
2008-12-16 14:12:36 51°27.54 2°45.334 161.7 12.3 153 30.5
2008-12-16 14:13:36 51°27.353 2°45.467 165.1 12.2 157 30.6
2008-12-16 14:14:36 51°27.167 2°45.586 164.7 11.8 159 31.7
2008-12-16 14:15:36 51°26.984 2°45.702 164.6 11.8 157 32.5
2008-12-16 14:16:37 51°26.799 2°45.826 162.8 11.8 157 33.1
2008-12-16 14:17:37 51°26.619 2°45.95 164.3 11.9 158 30.9
2008-12-16 14:18:36 51°26.438 2°46.06 165 11.7 160 30
2008-12-16 14:19:37 51°26.253 2°46.184 162.6 12 157 28.8
2008-12-16 14:20:36 51°26.073 2°46.306 164.3 11.9 160 25.9
2008-12-16 14:21:36 51°25.89 2°46.428 163.1 12 157 26.6
2008-12-16 14:22:36 51°25.708 2°46.548 163.6 11.8 158 27.4
2008-12-16 14:23:36 51°25.524 2°46.659 166.7 11.8 160 27.7
2008-12-16 14:24:36 51°25.337 2°46.767 166.3 12.1 161 27.8
2008-12-16 14:25:36 51°25.153 2°46.89 164.3 11.8 156 27.7
2008-12-16 14:26:36 51°24.976 2°47.02 162.5 11.7 156 28.7
2008-12-16 14:27:36 51°24.803 2°47.161 161.8 11.7 155 31.8
2008-12-16 14:28:36 51°24.626 2°47.289 162.8 11.6 155 34.1
2008-12-16 14:29:36 51°24.451 2°47.43 162.1 11.8 155 31.5
2008-12-16 14:30:36 51°24.272 2°47.562 163.3 12 156 27.6
2008-12-16 14:31:37 51°24.089 2°47.7 161.6 12.1 153 28
2008-12-16 14:32:36 51°23.913 2°47.843 160.7 12.1 151 24.2
2008-12-16 14:33:36 51°23.734 2°47.996 160.5 12.2 153 23.2
2008-12-16 14:34:36 51°23.552 2°48.14 165.4 12 158 23.2
2008-12-16 14:35:37 51°23.36 2°48.252 168.8 12.1 163 24.3
2008-12-16 14:36:36 51°23.173 2°48.351 170.6 12 163 24.4
2008-12-16 14:37:36 51°22.981 2°48.428 174.6 11.9 167 22.9
2008-12-16 14:38:36 51°22.789 2°48.495 176.6 11.9 170 22.4
2008-12-16 14:39:36 51°22.601 2°48.569 173 11.6 163 20.1
2008-12-16 14:40:36 51°22.415 2°48.653 173.9 11.6 165 21.1
2008-12-16 14:41:37 51°22.224 2°48.73 175.5 11.6 166 26.3
2008-12-16 14:42:37 51°22.035 2°48.805 175.4 11.8 165 26.7
2008-12-16 14:43:36 51°21.847 2°48.872 173.9 11.8 164 26.6
2008-12-16 14:44:36 51°21.659 2°48.975 167.2 11.8 160 26.1
2008-12-16 14:45:36 51°21.48 2°49.086 167.2 11.4 158 24.8
2008-12-16 14:46:36 51°21.302 2°49.197 167.4 11.4 159 25
2008-12-16 14:47:36 51°21.126 2°49.314 164.1 11.4 157 25.5
2008-12-16 14:48:36 51°20.949 2°49.433 167.8 11.5 159 26
2008-12-16 14:49:37 51°20.768 2°49.555 164.9 11.6 155 26.2
2008-12-16 14:50:37 51°20.591 2°49.681 164.6 11.7 156 25.9
2008-12-16 14:51:37 51°20.413 2°49.809 164.8 11.8 154 24.5
2008-12-16 14:52:37 51°20.235 2°49.939 164.8 11.9 156 21.9
2008-12-16 14:53:36 51°20.058 2°50.068 164.2 12 155 19.3
2008-12-16 14:54:36 51°19.878 2°50.209 161.4 12 151 17.1
2008-12-16 14:55:37 51°19.696 2°50.353 162.6 11.9 154 16.1
2008-12-16 14:56:36 51°19.517 2°50.487 163.1 12.1 157 15.2
2008-12-16 14:57:37 51°19.328 2°50.613 164.6 12.1 158 16.1
2008-12-16 14:58:37 51°19.143 2°50.74 163.5 12.1 156 17.6
2008-12-16 14:59:36 51°18.963 2°50.87 161.9 12.1 152 17.9
2008-12-16 15:00:37 51°18.781 2°51.021 161.1 12 152 17.7
2008-12-16 15:01:36 51°18.615 2°51.172 158.4 11.6 151 17.2
2008-12-16 15:02:36 51°18.446 2°51.328 157 11.8 149 16.4
2008-12-16 15:03:37 51°18.272 2°51.492 155.3 12.1 149 15.3
2008-12-16 15:04:37 51°18.096 2°51.638 159.6 11.9 155 14.2
2008-12-16 15:05:37 51°17.917 2°51.773 161.5 12 155 13.5
2008-12-16 15:06:37 51°17.741 2°51.918 161.2 11.8 154 13.5
2008-12-16 15:07:37 51°17.566 2°52.06 159 11.8 151 13.7
2008-12-16 15:08:36 51°17.393 2°52.196 166.3 11.8 161 13.7
2008-12-16 15:09:36 51°17.208 2°52.29 169.5 11.6 164 13.6
2008-12-16 15:10:36 51°17.021 2°52.376 168.7 11.7 163 13
2008-12-16 15:11:36 51°16.832 2°52.469 169.3 11.9 162 13.3
2008-12-16 15:12:36 51°16.644 2°52.565 169.2 11.8 162 14.2
2008-12-16 15:13:36 51°16.457 2°52.658 172.3 11.9 164 15
2008-12-16 15:14:37 51°16.264 2°52.755 168.3 12.2 159 15.2
2008-12-16 15:15:36 51°16.081 2°52.88 163.2 12.1 155 15.1
2008-12-16 15:16:37 51°15.921 2°53.016 161.4 10.1 153 15
2008-12-16 15:17:36 51°15.776 2°53.143 158.6 10.2 147 14.6
2008-12-16 15:18:36 51°15.647 2°53.324 143.6 10.3 133 14.2
2008-12-16 15:19:36 51°15.532 2°53.522 140.3 10.2 133 13.7
2008-12-16 15:20:36 51°15.417 2°53.718 141 10.1 132 13.3
2008-12-16 15:21:37 51°15.298 2°53.909 144 9.5 136 12.8
2008-12-16 15:22:36 51°15.217 2°54.045 143.5 6.1 132 12.2
2008-12-16 15:23:37 51°15.152 2°54.158 141.7 5.5 129 12.2
2008-12-16 15:24:36 51°15.095 2°54.31 122.2 8.3 114 14.5
2008-12-16 15:25:37 51°15.055 2°54.488 121.3 5.9 109 11.7
2008-12-16 15:26:36 51°15.018 2°54.606 144.7 4.4 125 11.8
2008-12-16 15:27:36 51°14.972 2°54.666 178.6 3.2 152 12.3
2008-12-16 15:28:36 51°14.924 2°54.692 195.4 2.8 172 12.5
2008-12-16 15:29:36 51°14.851 2°54.695 191.5 6.1 181 12.6
2008-12-16 15:30:37 51°14.735 2°54.746 162.8 8.1 150 12.9
2008-12-16 15:31:37 51°14.61 2°54.879 159 9.2 152 12.9
2008-12-16 15:32:37 51°14.469 2°55.021 150.4 11.1 142 13.3
2008-12-16 15:33:37 51°14.319 2°55.197 142.2 11.3 141 14.6
2008-12-16 15:34:37 51°14.176 2°55.369 144.9 10 146 13.8
2008-12-16 15:35:37 51°14.036 2°55.482 155.8 8.6 157 13.6
2008-12-16 15:36:37 51°13.927 2°55.557 157.3 6.1 156 13.7